sensor_id;sensor_type;location;lat;lon;timestamp;pressure;altitude;pressure_sealevel;temperature;humidity
79203;BME280;68630;42.748;23.278;2023-09-30T00:01:30;95940.59;;;13.75;59.58
79203;BME280;68630;42.748;23.278;2023-09-30T00:03:58;95932.98;;;14.00;58.93
79203;BME280;68630;42.748;23.278;2023-09-30T00:06:27;95949.11;;;13.84;59.61
79203;BME280;68630;42.748;23.278;2023-09-30T00:08:55;95940.81;;;13.88;59.43
79203;BME280;68630;42.748;23.278;2023-09-30T00:11:23;95936.39;;;13.73;60.03
79203;BME280;68630;42.748;23.278;2023-09-30T00:13:51;95933.77;;;13.77;59.97
79203;BME280;68630;42.748;23.278;2023-09-30T00:16:19;95935.75;;;13.75;60.05
79203;BME280;68630;42.748;23.278;2023-09-30T00:18:46;95932.92;;;13.66;60.44
79203;BME280;68630;42.748;23.278;2023-09-30T00:21:14;95930.13;;;13.78;60.02
79203;BME280;68630;42.748;23.278;2023-09-30T00:23:42;95929.34;;;13.72;59.58
79203;BME280;68630;42.748;23.278;2023-09-30T00:26:09;95934.41;;;13.94;58.78
79203;BME280;68630;42.748;23.278;2023-09-30T00:28:37;95936.16;;;13.90;58.93
79203;BME280;68630;42.748;23.278;2023-09-30T00:31:06;95924.34;;;14.02;58.62
79203;BME280;68630;42.748;23.278;2023-09-30T00:33:36;95925.18;;;14.12;58.47
79203;BME280;68630;42.748;23.278;2023-09-30T00:36:10;95932.20;;;14.23;58.52
79203;BME280;68630;42.748;23.278;2023-09-30T00:38:38;95918.86;;;14.27;58.52
79203;BME280;68630;42.748;23.278;2023-09-30T00:41:06;95915.20;;;14.38;58.35
79203;BME280;68630;42.748;23.278;2023-09-30T00:43:34;95920.97;;;14.43;58.33
79203;BME280;68630;42.748;23.278;2023-09-30T00:46:14;95923.09;;;14.39;58.70
79203;BME280;68630;42.748;23.278;2023-09-30T00:48:36;95920.15;;;14.33;58.81
79203;BME280;68630;42.748;23.278;2023-09-30T00:51:06;95918.35;;;14.37;59.01
79203;BME280;68630;42.748;23.278;2023-09-30T00:53:33;95916.08;;;14.42;58.75
79203;BME280;68630;42.748;23.278;2023-09-30T00:56:01;95917.79;;;14.43;58.95
79203;BME280;68630;42.748;23.278;2023-09-30T00:58:30;95923.28;;;14.42;58.67
79203;BME280;68630;42.748;23.278;2023-09-30T01:00:58;95920.61;;;14.09;59.80
79203;BME280;68630;42.748;23.278;2023-09-30T01:03:26;95922.92;;;14.17;59.63
79203;BME280;68630;42.748;23.278;2023-09-30T01:05:54;95917.39;;;14.29;59.34
79203;BME280;68630;42.748;23.278;2023-09-30T01:08:23;95915.87;;;14.07;60.48
79203;BME280;68630;42.748;23.278;2023-09-30T01:10:50;95906.30;;;13.94;60.90
79203;BME280;68630;42.748;23.278;2023-09-30T01:13:18;95910.95;;;13.92;60.83
79203;BME280;68630;42.748;23.278;2023-09-30T01:15:46;95907.45;;;13.92;60.89
79203;BME280;68630;42.748;23.278;2023-09-30T01:18:14;95911.95;;;13.81;61.26
79203;BME280;68630;42.748;23.278;2023-09-30T01:20:41;95914.84;;;14.03;60.50
79203;BME280;68630;42.748;23.278;2023-09-30T01:23:09;95909.06;;;13.98;60.82
79203;BME280;68630;42.748;23.278;2023-09-30T01:25:38;95916.28;;;14.12;60.26
79203;BME280;68630;42.748;23.278;2023-09-30T01:28:07;95906.72;;;14.19;60.26
79203;BME280;68630;42.748;23.278;2023-09-30T01:30:35;95922.47;;;14.22;60.23
79203;BME280;68630;42.748;23.278;2023-09-30T01:33:03;95914.02;;;14.17;60.31
79203;BME280;68630;42.748;23.278;2023-09-30T01:35:31;95911.56;;;14.29;60.01
79203;BME280;68630;42.748;23.278;2023-09-30T01:37:58;95916.54;;;14.38;59.92
79203;BME280;68630;42.748;23.278;2023-09-30T01:40:26;95917.25;;;14.30;59.98
79203;BME280;68630;42.748;23.278;2023-09-30T01:42:53;95920.98;;;14.33;59.88
79203;BME280;68630;42.748;23.278;2023-09-30T01:45:21;95913.91;;;14.09;60.86
79203;BME280;68630;42.748;23.278;2023-09-30T01:47:49;95909.81;;;14.14;60.58
79203;BME280;68630;42.748;23.278;2023-09-30T01:50:16;95912.49;;;14.04;61.01
79203;BME280;68630;42.748;23.278;2023-09-30T01:52:44;95914.33;;;14.04;61.26
79203;BME280;68630;42.748;23.278;2023-09-30T01:55:11;95911.80;;;14.12;60.84
79203;BME280;68630;42.748;23.278;2023-09-30T01:57:39;95913.27;;;14.01;60.81
79203;BME280;68630;42.748;23.278;2023-09-30T02:00:07;95907.02;;;13.86;61.30
79203;BME280;68630;42.748;23.278;2023-09-30T02:02:36;95916.08;;;13.90;60.96
79203;BME280;68630;42.748;23.278;2023-09-30T02:05:04;95908.00;;;13.95;60.91
79203;BME280;68630;42.748;23.278;2023-09-30T02:07:34;95912.06;;;13.90;60.97
79203;BME280;68630;42.748;23.278;2023-09-30T02:10:02;95909.48;;;13.84;60.94
79203;BME280;68630;42.748;23.278;2023-09-30T02:12:29;95910.95;;;13.82;60.92
79203;BME280;68630;42.748;23.278;2023-09-30T02:14:59;95903.15;;;13.85;60.82
79203;BME280;68630;42.748;23.278;2023-09-30T02:17:26;95913.61;;;13.18;63.22
79203;BME280;68630;42.748;23.278;2023-09-30T02:19:54;95911.27;;;13.35;62.66
79203;BME280;68630;42.748;23.278;2023-09-30T02:22:21;95910.31;;;13.45;62.23
79203;BME280;68630;42.748;23.278;2023-09-30T02:24:51;95919.54;;;13.47;62.28
79203;BME280;68630;42.748;23.278;2023-09-30T02:27:18;95915.56;;;13.41;62.22
79203;BME280;68630;42.748;23.278;2023-09-30T02:29:46;95921.76;;;13.32;62.55
79203;BME280;68630;42.748;23.278;2023-09-30T02:32:14;95922.83;;;13.29;62.63
79203;BME280;68630;42.748;23.278;2023-09-30T02:34:41;95923.87;;;13.23;62.73
79203;BME280;68630;42.748;23.278;2023-09-30T02:37:10;95924.87;;;13.22;62.76
79203;BME280;68630;42.748;23.278;2023-09-30T02:39:38;95922.33;;;13.20;62.76
79203;BME280;68630;42.748;23.278;2023-09-30T02:42:05;95918.69;;;13.21;62.45
79203;BME280;68630;42.748;23.278;2023-09-30T02:44:33;95916.48;;;13.11;62.63
79203;BME280;68630;42.748;23.278;2023-09-30T02:47:01;95916.02;;;13.21;61.99
79203;BME280;68630;42.748;23.278;2023-09-30T02:49:32;95910.29;;;13.36;61.98
79203;BME280;68630;42.748;23.278;2023-09-30T02:51:58;95905.12;;;13.28;62.17
79203;BME280;68630;42.748;23.278;2023-09-30T02:54:25;95904.24;;;13.34;61.78
79203;BME280;68630;42.748;23.278;2023-09-30T02:56:53;95914.67;;;13.31;61.53
79203;BME280;68630;42.748;23.278;2023-09-30T02:59:21;95913.94;;;13.35;61.47
79203;BME280;68630;42.748;23.278;2023-09-30T03:01:48;95915.50;;;13.37;61.58
79203;BME280;68630;42.748;23.278;2023-09-30T03:04:16;95912.90;;;13.32;61.52
79203;BME280;68630;42.748;23.278;2023-09-30T03:06:46;95908.76;;;13.27;61.88
79203;BME280;68630;42.748;23.278;2023-09-30T03:09:15;95918.75;;;13.25;61.88
79203;BME280;68630;42.748;23.278;2023-09-30T03:11:42;95918.82;;;13.20;62.05
79203;BME280;68630;42.748;23.278;2023-09-30T03:14:10;95912.27;;;13.18;62.01
79203;BME280;68630;42.748;23.278;2023-09-30T03:16:42;95913.39;;;12.90;63.06
79203;BME280;68630;42.748;23.278;2023-09-30T03:19:10;95911.12;;;12.86;63.19
79203;BME280;68630;42.748;23.278;2023-09-30T03:21:39;95913.34;;;12.81;63.44
79203;BME280;68630;42.748;23.278;2023-09-30T03:24:07;95909.78;;;12.86;63.11
79203;BME280;68630;42.748;23.278;2023-09-30T03:26:35;95907.25;;;12.69;63.93
79203;BME280;68630;42.748;23.278;2023-09-30T03:29:02;95911.20;;;12.74;63.52
79203;BME280;68630;42.748;23.278;2023-09-30T03:31:32;95913.41;;;12.75;63.29
79203;BME280;68630;42.748;23.278;2023-09-30T03:33:59;95912.02;;;12.81;63.39
79203;BME280;68630;42.748;23.278;2023-09-30T03:36:27;95903.61;;;12.54;64.12
79203;BME280;68630;42.748;23.278;2023-09-30T03:38:55;95907.64;;;12.64;63.59
79203;BME280;68630;42.748;23.278;2023-09-30T03:41:27;95910.63;;;12.71;63.41
79203;BME280;68630;42.748;23.278;2023-09-30T03:43:55;95902.41;;;12.68;63.69
79203;BME280;68630;42.748;23.278;2023-09-30T03:46:23;95911.05;;;12.66;63.52
79203;BME280;68630;42.748;23.278;2023-09-30T03:48:52;95908.06;;;12.60;63.09
79203;BME280;68630;42.748;23.278;2023-09-30T03:51:22;95905.84;;;12.49;63.71
79203;BME280;68630;42.748;23.278;2023-09-30T03:53:52;95910.30;;;12.33;64.08
79203;BME280;68630;42.748;23.278;2023-09-30T03:56:19;95907.76;;;12.32;64.07
79203;BME280;68630;42.748;23.278;2023-09-30T03:58:48;95905.45;;;12.33;64.17
79203;BME280;68630;42.748;23.278;2023-09-30T04:01:16;95906.95;;;12.10;65.34
79203;BME280;68630;42.748;23.278;2023-09-30T04:03:45;95910.52;;;12.21;64.83
79203;BME280;68630;42.748;23.278;2023-09-30T04:06:16;95915.06;;;12.30;64.58
79203;BME280;68630;42.748;23.278;2023-09-30T04:08:43;95916.44;;;12.24;64.73
79203;BME280;68630;42.748;23.278;2023-09-30T04:11:11;95916.82;;;12.20;64.92
79203;BME280;68630;42.748;23.278;2023-09-30T04:13:40;95916.06;;;12.23;64.58
79203;BME280;68630;42.748;23.278;2023-09-30T04:16:08;95911.47;;;12.25;64.45
79203;BME280;68630;42.748;23.278;2023-09-30T04:18:36;95918.07;;;12.15;64.75
79203;BME280;68630;42.748;23.278;2023-09-30T04:21:05;95917.41;;;12.02;65.04
79203;BME280;68630;42.748;23.278;2023-09-30T04:23:33;95919.66;;;11.91;65.26
79203;BME280;68630;42.748;23.278;2023-09-30T04:26:12;95927.30;;;11.85;65.28
79203;BME280;68630;42.748;23.278;2023-09-30T04:28:39;95932.39;;;11.82;65.12
79203;BME280;68630;42.748;23.278;2023-09-30T04:31:07;95936.70;;;11.68;65.27
79203;BME280;68630;42.748;23.278;2023-09-30T04:33:34;95934.50;;;11.73;64.94
79203;BME280;68630;42.748;23.278;2023-09-30T04:36:03;95933.54;;;11.68;64.90
79203;BME280;68630;42.748;23.278;2023-09-30T04:38:33;95938.06;;;11.62;64.90
79203;BME280;68630;42.748;23.278;2023-09-30T04:41:01;95943.74;;;11.63;64.91
79203;BME280;68630;42.748;23.278;2023-09-30T04:43:28;95944.17;;;11.79;64.58
79203;BME280;68630;42.748;23.278;2023-09-30T04:45:58;95941.09;;;11.95;64.22
79203;BME280;68630;42.748;23.278;2023-09-30T04:48:26;95936.18;;;12.06;64.08
79203;BME280;68630;42.748;23.278;2023-09-30T04:50:53;95942.17;;;12.20;63.90
79203;BME280;68630;42.748;23.278;2023-09-30T04:53:21;95950.30;;;12.24;63.94
79203;BME280;68630;42.748;23.278;2023-09-30T04:55:50;95949.50;;;12.33;63.64
79203;BME280;68630;42.748;23.278;2023-09-30T04:58:18;95949.41;;;12.50;63.25
79203;BME280;68630;42.748;23.278;2023-09-30T05:00:45;95948.88;;;12.56;63.28
79203;BME280;68630;42.748;23.278;2023-09-30T05:03:13;95949.09;;;12.59;63.16
79203;BME280;68630;42.748;23.278;2023-09-30T05:05:41;95952.40;;;12.72;62.69
79203;BME280;68630;42.748;23.278;2023-09-30T05:08:09;95946.11;;;12.67;62.99
79203;BME280;68630;42.748;23.278;2023-09-30T05:10:37;95948.72;;;12.58;63.57
79203;BME280;68630;42.748;23.278;2023-09-30T05:13:05;95949.98;;;12.69;63.26
79203;BME280;68630;42.748;23.278;2023-09-30T05:15:33;95956.59;;;12.96;62.33
79203;BME280;68630;42.748;23.278;2023-09-30T05:18:02;95965.63;;;13.14;62.03
79203;BME280;68630;42.748;23.278;2023-09-30T05:20:32;95963.80;;;13.30;61.36
79203;BME280;68630;42.748;23.278;2023-09-30T05:22:59;95959.66;;;13.47;60.90
79203;BME280;68630;42.748;23.278;2023-09-30T05:25:27;95964.38;;;13.49;61.02
79203;BME280;68630;42.748;23.278;2023-09-30T05:27:59;95970.45;;;13.61;60.78
79203;BME280;68630;42.748;23.278;2023-09-30T05:30:24;95972.98;;;13.62;61.00
79203;BME280;68630;42.748;23.278;2023-09-30T05:32:51;95974.39;;;13.66;60.67
79203;BME280;68630;42.748;23.278;2023-09-30T05:35:23;95972.79;;;13.89;60.32
79203;BME280;68630;42.748;23.278;2023-09-30T05:37:51;95971.75;;;14.05;59.74
79203;BME280;68630;42.748;23.278;2023-09-30T05:40:20;95971.31;;;14.30;59.17
79203;BME280;68630;42.748;23.278;2023-09-30T05:42:53;95978.05;;;14.43;58.38
79203;BME280;68630;42.748;23.278;2023-09-30T05:45:23;95979.33;;;14.59;58.01
79203;BME280;68630;42.748;23.278;2023-09-30T05:47:54;95975.32;;;15.06;56.59
79203;BME280;68630;42.748;23.278;2023-09-30T05:50:23;95988.38;;;15.33;56.10
79203;BME280;68630;42.748;23.278;2023-09-30T05:52:54;95979.57;;;15.13;57.39
79203;BME280;68630;42.748;23.278;2023-09-30T05:55:22;95973.59;;;15.74;55.77
79203;BME280;68630;42.748;23.278;2023-09-30T05:57:54;95972.62;;;16.07;54.56
79203;BME280;68630;42.748;23.278;2023-09-30T06:00:22;95974.91;;;17.09;51.74
79203;BME280;68630;42.748;23.278;2023-09-30T06:02:53;95977.47;;;17.61;50.29
79203;BME280;68630;42.748;23.278;2023-09-30T06:05:22;95978.45;;;19.09;46.60
79203;BME280;68630;42.748;23.278;2023-09-30T06:07:57;95976.80;;;21.03;42.25
79203;BME280;68630;42.748;23.278;2023-09-30T06:10:25;95980.38;;;22.69;38.72
79203;BME280;68630;42.748;23.278;2023-09-30T06:12:57;95984.16;;;23.17;37.72
79203;BME280;68630;42.748;23.278;2023-09-30T06:15:25;95980.00;;;24.29;35.35
79203;BME280;68630;42.748;23.278;2023-09-30T06:17:53;95980.48;;;26.18;32.86
79203;BME280;68630;42.748;23.278;2023-09-30T06:20:22;95977.20;;;27.05;30.54
79203;BME280;68630;42.748;23.278;2023-09-30T06:22:51;95986.00;;;28.52;28.56
79203;BME280;68630;42.748;23.278;2023-09-30T06:25:21;95977.27;;;29.63;26.73
79203;BME280;68630;42.748;23.278;2023-09-30T06:27:56;95982.78;;;30.16;26.23
79203;BME280;68630;42.748;23.278;2023-09-30T06:30:27;95983.48;;;31.09;24.94
79203;BME280;68630;42.748;23.278;2023-09-30T06:33:00;95982.83;;;31.19;24.54
79203;BME280;68630;42.748;23.278;2023-09-30T06:35:30;95988.76;;;31.64;24.30
79203;BME280;68630;42.748;23.278;2023-09-30T06:51:55;95993.96;;;33.23;21.37
79203;BME280;68630;42.748;23.278;2023-09-30T06:57:04;95994.71;;;30.48;25.22
79203;BME280;68630;42.748;23.278;2023-09-30T07:07:20;95999.22;;;30.39;25.08
79203;BME280;68630;42.748;23.278;2023-09-30T07:19:10;95996.36;;;31.77;23.35
79203;BME280;68630;42.748;23.278;2023-09-30T07:45:27;95996.52;;;33.02;21.79
79203;BME280;68630;42.748;23.278;2023-09-30T07:50:25;96001.94;;;34.55;20.31
79203;BME280;68630;42.748;23.278;2023-09-30T07:52:56;96002.81;;;34.05;20.87
79203;BME280;68630;42.748;23.278;2023-09-30T07:55:26;96004.80;;;34.81;20.16
79203;BME280;68630;42.748;23.278;2023-09-30T07:57:54;96006.64;;;34.65;19.86
79203;BME280;68630;42.748;23.278;2023-09-30T08:00:25;95998.38;;;34.04;20.52
79203;BME280;68630;42.748;23.278;2023-09-30T08:02:53;96001.28;;;34.32;20.57
79203;BME280;68630;42.748;23.278;2023-09-30T08:05:22;96000.73;;;35.27;19.13
79203;BME280;68630;42.748;23.278;2023-09-30T08:07:50;95997.09;;;36.71;18.05
79203;BME280;68630;42.748;23.278;2023-09-30T08:10:17;95998.03;;;37.99;17.20
79203;BME280;68630;42.748;23.278;2023-09-30T08:20:45;95993.55;;;35.34;19.09
79203;BME280;68630;42.748;23.278;2023-09-30T08:23:13;95990.41;;;37.83;17.15
79203;BME280;68630;42.748;23.278;2023-09-30T08:25:41;95985.31;;;37.61;17.02
79203;BME280;68630;42.748;23.278;2023-09-30T08:33:24;95990.41;;;37.15;17.67
79203;BME280;68630;42.748;23.278;2023-09-30T08:35:53;95987.44;;;38.50;15.86
79203;BME280;68630;42.748;23.278;2023-09-30T08:38:21;95985.16;;;40.13;15.05
79203;BME280;68630;42.748;23.278;2023-09-30T08:40:51;95990.96;;;39.69;14.82
79203;BME280;68630;42.748;23.278;2023-09-30T08:43:20;95980.92;;;38.11;15.90
79203;BME280;68630;42.748;23.278;2023-09-30T08:45:51;95981.74;;;38.17;15.74
79203;BME280;68630;42.748;23.278;2023-09-30T08:48:22;95974.16;;;37.96;15.93
79203;BME280;68630;42.748;23.278;2023-09-30T08:50:53;95976.36;;;39.09;15.00
79203;BME280;68630;42.748;23.278;2023-09-30T08:53:24;95976.37;;;40.33;13.99
79203;BME280;68630;42.748;23.278;2023-09-30T08:55:56;95977.74;;;37.40;16.18
79203;BME280;68630;42.748;23.278;2023-09-30T08:58:27;95970.77;;;37.77;15.60
79203;BME280;68630;42.748;23.278;2023-09-30T09:00:56;95971.21;;;38.14;15.13
79203;BME280;68630;42.748;23.278;2023-09-30T09:03:27;95962.14;;;36.08;16.82
79203;BME280;68630;42.748;23.278;2023-09-30T09:05:56;95964.53;;;36.90;16.15
79203;BME280;68630;42.748;23.278;2023-09-30T09:08:27;95955.44;;;37.19;15.99
79203;BME280;68630;42.748;23.278;2023-09-30T09:10:57;95959.17;;;35.60;17.02
79203;BME280;68630;42.748;23.278;2023-09-30T09:13:26;95956.16;;;34.98;17.59
79203;BME280;68630;42.748;23.278;2023-09-30T09:16:07;95958.77;;;36.81;16.46
79203;BME280;68630;42.748;23.278;2023-09-30T09:18:36;95960.84;;;35.74;17.14
79203;BME280;68630;42.748;23.278;2023-09-30T09:21:21;95952.97;;;36.75;16.37
79203;BME280;68630;42.748;23.278;2023-09-30T09:23:54;95950.33;;;36.52;16.54
79203;BME280;68630;42.748;23.278;2023-09-30T09:26:30;95947.84;;;34.95;17.89
79203;BME280;68630;42.748;23.278;2023-09-30T09:28:59;95935.53;;;37.43;15.93
79203;BME280;68630;42.748;23.278;2023-09-30T09:31:34;95940.58;;;37.92;15.47
79203;BME280;68630;42.748;23.278;2023-09-30T09:34:13;95940.78;;;39.06;14.73
79203;BME280;68630;42.748;23.278;2023-09-30T09:36:42;95932.77;;;37.70;15.43
79203;BME280;68630;42.748;23.278;2023-09-30T09:39:12;95941.13;;;36.59;16.35
79203;BME280;68630;42.748;23.278;2023-09-30T09:41:52;95936.80;;;35.36;16.92
79203;BME280;68630;42.748;23.278;2023-09-30T09:44:23;95928.56;;;36.17;16.21
79203;BME280;68630;42.748;23.278;2023-09-30T09:46:57;95930.90;;;35.89;16.79
79203;BME280;68630;42.748;23.278;2023-09-30T09:49:25;95932.31;;;36.52;16.45
79203;BME280;68630;42.748;23.278;2023-09-30T09:51:55;95936.69;;;34.41;17.98
79203;BME280;68630;42.748;23.278;2023-09-30T09:54:29;95932.80;;;34.35;17.76
79203;BME280;68630;42.748;23.278;2023-09-30T09:57:01;95919.70;;;34.09;17.61
79203;BME280;68630;42.748;23.278;2023-09-30T09:59:27;95915.47;;;33.38;18.35
79203;BME280;68630;42.748;23.278;2023-09-30T10:01:56;95916.28;;;33.82;18.29
79203;BME280;68630;42.748;23.278;2023-09-30T10:04:25;95919.38;;;32.04;20.07
79203;BME280;68630;42.748;23.278;2023-09-30T10:06:54;95916.39;;;32.30;20.04
79203;BME280;68630;42.748;23.278;2023-09-30T10:09:23;95913.38;;;33.64;18.79
79203;BME280;68630;42.748;23.278;2023-09-30T10:12:10;95904.72;;;32.72;17.96
79203;BME280;68630;42.748;23.278;2023-09-30T10:14:32;95847.87;;;31.23;18.57
79203;BME280;68630;42.748;23.278;2023-09-30T10:17:00;95918.57;;;30.74;19.29
79203;BME280;68630;42.748;23.278;2023-09-30T10:19:28;95900.63;;;30.69;19.52
79203;BME280;68630;42.748;23.278;2023-09-30T10:24:56;95899.45;;;29.41;20.35
79203;BME280;68630;42.748;23.278;2023-09-30T10:27:27;95900.84;;;28.72;20.99
79203;BME280;68630;42.748;23.278;2023-09-30T10:37:51;95886.59;;;26.58;23.41
79203;BME280;68630;42.748;23.278;2023-09-30T10:40:30;95889.91;;;26.25;23.65
79203;BME280;68630;42.748;23.278;2023-09-30T10:42:57;95883.85;;;26.01;24.09
79203;BME280;68630;42.748;23.278;2023-09-30T10:45:42;95875.09;;;26.08;24.28
79203;BME280;68630;42.748;23.278;2023-09-30T10:51:11;95873.25;;;25.79;24.76
79203;BME280;68630;42.748;23.278;2023-09-30T10:53:49;95885.17;;;25.85;24.80
79203;BME280;68630;42.748;23.278;2023-09-30T10:56:25;95872.30;;;25.83;24.79
79203;BME280;68630;42.748;23.278;2023-09-30T11:01:24;95864.23;;;25.56;25.06
79203;BME280;68630;42.748;23.278;2023-09-30T11:03:58;95861.23;;;25.71;25.04
79203;BME280;68630;42.748;23.278;2023-09-30T11:06:25;95854.39;;;25.93;25.04
79203;BME280;68630;42.748;23.278;2023-09-30T11:09:01;95863.28;;;25.75;25.09
79203;BME280;68630;42.748;23.278;2023-09-30T11:11:38;95844.27;;;25.69;24.90
79203;BME280;68630;42.748;23.278;2023-09-30T11:14:27;95854.53;;;25.44;25.60
79203;BME280;68630;42.748;23.278;2023-09-30T11:17:05;95856.66;;;25.35;25.59
79203;BME280;68630;42.748;23.278;2023-09-30T11:19:37;95851.99;;;25.49;25.61
79203;BME280;68630;42.748;23.278;2023-09-30T11:22:06;95840.10;;;25.37;25.80
79203;BME280;68630;42.748;23.278;2023-09-30T11:24:37;95851.61;;;25.61;25.65
79203;BME280;68630;42.748;23.278;2023-09-30T11:27:23;95840.10;;;25.59;25.44
79203;BME280;68630;42.748;23.278;2023-09-30T11:29:54;95843.97;;;25.61;25.71
79203;BME280;68630;42.748;23.278;2023-09-30T11:32:28;95836.44;;;25.56;25.71
79203;BME280;68630;42.748;23.278;2023-09-30T11:34:57;95839.67;;;25.63;26.09
79203;BME280;68630;42.748;23.278;2023-09-30T11:37:32;95831.50;;;25.63;26.29
79203;BME280;68630;42.748;23.278;2023-09-30T11:40:11;95828.97;;;25.45;26.63
79203;BME280;68630;42.748;23.278;2023-09-30T11:42:40;95830.73;;;25.49;26.16
79203;BME280;68630;42.748;23.278;2023-09-30T11:45:21;95831.39;;;25.60;26.46
79203;BME280;68630;42.748;23.278;2023-09-30T11:47:49;95832.83;;;25.85;25.12
79203;BME280;68630;42.748;23.278;2023-09-30T11:50:17;95835.40;;;25.57;26.19
79203;BME280;68630;42.748;23.278;2023-09-30T11:52:50;95822.50;;;25.78;26.09
79203;BME280;68630;42.748;23.278;2023-09-30T11:55:14;95818.16;;;25.86;25.74
79203;BME280;68630;42.748;23.278;2023-09-30T11:57:43;95812.74;;;25.79;25.61
79203;BME280;68630;42.748;23.278;2023-09-30T12:00:11;95809.00;;;25.96;25.77
79203;BME280;68630;42.748;23.278;2023-09-30T12:02:40;95813.27;;;26.02;24.96
79203;BME280;68630;42.748;23.278;2023-09-30T12:05:12;95807.13;;;26.06;24.98
79203;BME280;68630;42.748;23.278;2023-09-30T12:07:40;95809.87;;;26.31;24.67
79203;BME280;68630;42.748;23.278;2023-09-30T12:10:08;95797.87;;;26.23;24.50
79203;BME280;68630;42.748;23.278;2023-09-30T12:12:43;95791.95;;;26.01;25.24
79203;BME280;68630;42.748;23.278;2023-09-30T12:15:14;95802.16;;;26.12;24.67
79203;BME280;68630;42.748;23.278;2023-09-30T12:17:45;95796.02;;;25.85;24.63
79203;BME280;68630;42.748;23.278;2023-09-30T12:20:15;95803.81;;;25.66;25.04
79203;BME280;68630;42.748;23.278;2023-09-30T12:22:44;95790.06;;;25.47;25.71
79203;BME280;68630;42.748;23.278;2023-09-30T12:25:17;95789.53;;;25.18;25.63
79203;BME280;68630;42.748;23.278;2023-09-30T12:27:42;95785.23;;;25.27;25.91
79203;BME280;68630;42.748;23.278;2023-09-30T12:30:10;95783.31;;;25.34;26.03
79203;BME280;68630;42.748;23.278;2023-09-30T12:32:41;95777.45;;;25.53;25.90
79203;BME280;68630;42.748;23.278;2023-09-30T12:35:09;95782.69;;;25.54;25.69
79203;BME280;68630;42.748;23.278;2023-09-30T12:37:38;95780.98;;;25.37;26.20
79203;BME280;68630;42.748;23.278;2023-09-30T12:42:35;95748.57;;;25.22;26.52
79203;BME280;68630;42.748;23.278;2023-09-30T12:45:03;95777.86;;;25.34;26.49
79203;BME280;68630;42.748;23.278;2023-09-30T12:47:32;95781.39;;;25.41;26.77
79203;BME280;68630;42.748;23.278;2023-09-30T12:49:59;95768.30;;;25.40;26.17
79203;BME280;68630;42.748;23.278;2023-09-30T12:52:27;95761.87;;;25.21;26.50
79203;BME280;68630;42.748;23.278;2023-09-30T12:54:56;95760.98;;;25.34;26.08
79203;BME280;68630;42.748;23.278;2023-09-30T13:00:24;95768.11;;;25.06;26.80
79203;BME280;68630;42.748;23.278;2023-09-30T13:02:53;95759.54;;;25.02;26.90
79203;BME280;68630;42.748;23.278;2023-09-30T13:05:22;95758.42;;;25.17;26.60
79203;BME280;68630;42.748;23.278;2023-09-30T13:07:49;95752.66;;;25.22;26.49
79203;BME280;68630;42.748;23.278;2023-09-30T13:10:19;95761.26;;;25.26;26.61
79203;BME280;68630;42.748;23.278;2023-09-30T13:12:48;95761.12;;;25.23;26.97
79203;BME280;68630;42.748;23.278;2023-09-30T13:15:20;95756.58;;;25.11;27.32
79203;BME280;68630;42.748;23.278;2023-09-30T13:17:50;95756.41;;;24.99;27.21
79203;BME280;68630;42.748;23.278;2023-09-30T13:20:18;95760.60;;;24.95;27.46
79203;BME280;68630;42.748;23.278;2023-09-30T13:23:09;95777.53;;;25.03;27.03
79203;BME280;68630;42.748;23.278;2023-09-30T13:25:34;95764.07;;;24.93;26.88
79203;BME280;68630;42.748;23.278;2023-09-30T13:30:30;95760.54;;;24.85;27.38
79203;BME280;68630;42.748;23.278;2023-09-30T13:32:58;95745.36;;;24.87;26.96
79203;BME280;68630;42.748;23.278;2023-09-30T13:35:26;95738.91;;;24.75;27.33
79203;BME280;68630;42.748;23.278;2023-09-30T13:37:54;95752.60;;;24.77;27.43
79203;BME280;68630;42.748;23.278;2023-09-30T13:40:27;95740.47;;;24.80;27.48
79203;BME280;68630;42.748;23.278;2023-09-30T13:42:51;95734.36;;;24.84;27.33
79203;BME280;68630;42.748;23.278;2023-09-30T13:45:20;95744.22;;;24.79;27.59
79203;BME280;68630;42.748;23.278;2023-09-30T13:47:51;95731.78;;;24.74;27.19
79203;BME280;68630;42.748;23.278;2023-09-30T13:50:18;95730.95;;;24.73;27.25
79203;BME280;68630;42.748;23.278;2023-09-30T13:52:46;95735.73;;;24.78;27.44
79203;BME280;68630;42.748;23.278;2023-09-30T13:55:14;95734.84;;;24.68;27.47
79203;BME280;68630;42.748;23.278;2023-09-30T13:57:56;95732.11;;;24.75;27.36
79203;BME280;68630;42.748;23.278;2023-09-30T14:00:20;95726.13;;;24.75;27.48
79203;BME280;68630;42.748;23.278;2023-09-30T14:02:48;95724.80;;;24.62;27.76
79203;BME280;68630;42.748;23.278;2023-09-30T14:12:57;95722.25;;;24.74;28.07
79203;BME280;68630;42.748;23.278;2023-09-30T14:15:25;95728.85;;;24.75;28.02
79203;BME280;68630;42.748;23.278;2023-09-30T14:17:54;95719.55;;;24.67;28.45
79203;BME280;68630;42.748;23.278;2023-09-30T14:20:27;95728.90;;;24.55;27.42
79203;BME280;68630;42.748;23.278;2023-09-30T14:22:55;95722.41;;;24.63;27.21
79203;BME280;68630;42.748;23.278;2023-09-30T14:25:23;95729.71;;;24.62;26.98
79203;BME280;68630;42.748;23.278;2023-09-30T14:27:50;95725.63;;;24.62;27.34
79203;BME280;68630;42.748;23.278;2023-09-30T14:30:18;95729.28;;;24.52;27.67
79203;BME280;68630;42.748;23.278;2023-09-30T14:33:00;95729.71;;;24.62;28.05
79203;BME280;68630;42.748;23.278;2023-09-30T14:35:24;95729.71;;;24.62;28.05
79203;BME280;68630;42.748;23.278;2023-09-30T14:37:52;95737.80;;;24.60;27.74
79203;BME280;68630;42.748;23.278;2023-09-30T14:40:21;95726.41;;;24.40;28.10
79203;BME280;68630;42.748;23.278;2023-09-30T14:42:48;95726.28;;;24.44;28.50
79203;BME280;68630;42.748;23.278;2023-09-30T14:45:16;95723.65;;;24.47;28.55
79203;BME280;68630;42.748;23.278;2023-09-30T14:47:43;95723.65;;;24.47;28.55